sensor_id;sensor_type;location;lat;lon;timestamp;pressure;altitude;pressure_sealevel;temperature;humidity
9281;BME280;4679;47.966;7.958;2022-11-20T06:40:16;96752.78;;;6.65;82.13
9281;BME280;4679;47.966;7.958;2022-11-20T06:42:18;96770.44;;;6.65;81.42
9281;BME280;4679;47.966;7.958;2022-11-20T06:44:19;96767.00;;;6.64;82.04
9281;BME280;4679;47.966;7.958;2022-11-20T06:46:21;96768.69;;;6.59;82.45
9281;BME280;4679;47.966;7.958;2022-11-20T06:48:23;96772.81;;;6.55;81.23
9281;BME280;4679;47.966;7.958;2022-11-20T06:50:25;96769.59;;;6.53;81.22
9281;BME280;4679;47.966;7.958;2022-11-20T06:52:27;96772.47;;;6.51;82.01
9281;BME280;4679;47.966;7.958;2022-11-20T06:54:29;96770.84;;;6.50;81.90
9281;BME280;4679;47.966;7.958;2022-11-20T06:56:32;96771.09;;;6.49;81.42
9281;BME280;4679;47.966;7.958;2022-11-20T06:58:34;96771.09;;;6.49;81.91
9281;BME280;4679;47.966;7.958;2022-11-20T07:00:36;96764.78;;;6.50;81.49
9281;BME280;4679;47.966;7.958;2022-11-20T07:02:38;96772.25;;;6.53;81.32
9281;BME280;4679;47.966;7.958;2022-11-20T07:04:40;96769.16;;;6.56;81.71
9281;BME280;4679;47.966;7.958;2022-11-20T07:06:41;96770.53;;;6.58;82.13
9281;BME280;4679;47.966;7.958;2022-11-20T07:08:43;96772.34;;;6.58;82.41
9281;BME280;4679;47.966;7.958;2022-11-20T07:10:45;96769.50;;;6.59;82.16
9281;BME280;4679;47.966;7.958;2022-11-20T07:12:50;96778.19;;;6.60;81.34
9281;BME280;4679;47.966;7.958;2022-11-20T07:14:52;96771.91;;;6.61;82.00
9281;BME280;4679;47.966;7.958;2022-11-20T07:16:54;96775.56;;;6.60;81.03
9281;BME280;4679;47.966;7.958;2022-11-20T07:18:56;96786.34;;;6.58;81.21
9281;BME280;4679;47.966;7.958;2022-11-20T07:21:00;96789.78;;;6.59;81.43
9281;BME280;4679;47.966;7.958;2022-11-20T07:23:01;96786.69;;;6.62;81.62
9281;BME280;4679;47.966;7.958;2022-11-20T07:25:04;96781.41;;;6.62;81.32
9281;BME280;4679;47.966;7.958;2022-11-20T07:27:06;96785.66;;;6.63;80.89
9281;BME280;4679;47.966;7.958;2022-11-20T07:29:09;96796.22;;;6.63;82.16
9281;BME280;4679;47.966;7.958;2022-11-20T07:31:10;96787.84;;;6.66;81.10
9281;BME280;4679;47.966;7.958;2022-11-20T07:33:13;96790.50;;;6.66;81.50
9281;BME280;4679;47.966;7.958;2022-11-20T07:35:15;96791.88;;;6.68;81.82
9281;BME280;4679;47.966;7.958;2022-11-20T07:37:16;96791.66;;;6.70;81.63
9281;BME280;4679;47.966;7.958;2022-11-20T07:39:18;96796.44;;;6.73;80.47
9281;BME280;4679;47.966;7.958;2022-11-20T07:41:20;96788.66;;;6.78;80.92
9281;BME280;4679;47.966;7.958;2022-11-20T07:43:21;96783.16;;;6.80;80.52
9281;BME280;4679;47.966;7.958;2022-11-20T07:45:24;96780.31;;;6.81;81.00
9281;BME280;4679;47.966;7.958;2022-11-20T07:47:26;96787.19;;;6.82;80.82
9281;BME280;4679;47.966;7.958;2022-11-20T07:49:28;96783.53;;;6.83;80.64
9281;BME280;4679;47.966;7.958;2022-11-20T07:51:29;96791.44;;;6.83;81.23
9281;BME280;4679;47.966;7.958;2022-11-20T07:53:31;96786.75;;;6.85;81.39
9281;BME280;4679;47.966;7.958;2022-11-20T07:55:33;96783.06;;;6.86;80.33
9281;BME280;4679;47.966;7.958;2022-11-20T07:57:34;96788.91;;;6.88;80.74
9281;BME280;4679;47.966;7.958;2022-11-20T07:59:36;96791.31;;;6.90;79.97
9281;BME280;4679;47.966;7.958;2022-11-20T08:01:40;96797.38;;;6.90;81.10
9281;BME280;4679;47.966;7.958;2022-11-20T08:03:42;96789.47;;;6.90;80.63
9281;BME280;4679;47.966;7.958;2022-11-20T08:05:44;96805.31;;;6.90;79.99
9281;BME280;4679;47.966;7.958;2022-11-20T08:07:45;96811.06;;;6.87;80.40
9281;BME280;4679;47.966;7.958;2022-11-20T08:09:47;96813.91;;;6.86;80.20
9281;BME280;4679;47.966;7.958;2022-11-20T08:11:49;96815.75;;;6.85;79.87
9281;BME280;4679;47.966;7.958;2022-11-20T08:14:08;96817.44;;;6.80;80.61
9281;BME280;4679;47.966;7.958;2022-11-20T08:16:16;96822.72;;;6.80;81.22
9281;BME280;4679;47.966;7.958;2022-11-20T08:18:19;96832.91;;;6.76;81.05
9281;BME280;4679;47.966;7.958;2022-11-20T08:20:20;96832.09;;;6.76;81.11
9281;BME280;4679;47.966;7.958;2022-11-20T08:22:22;96833.34;;;6.73;80.22
9281;BME280;4679;47.966;7.958;2022-11-20T08:24:25;96841.16;;;6.68;80.87
9281;BME280;4679;47.966;7.958;2022-11-20T08:26:27;96825.78;;;6.65;81.04
9281;BME280;4679;47.966;7.958;2022-11-20T08:28:29;96827.03;;;6.62;81.47
9281;BME280;4679;47.966;7.958;2022-11-20T08:30:31;96827.47;;;6.59;80.89
9281;BME280;4679;47.966;7.958;2022-11-20T08:32:33;96831.41;;;6.57;81.67
9281;BME280;4679;47.966;7.958;2022-11-20T08:34:36;96833.44;;;6.55;80.66
9281;BME280;4679;47.966;7.958;2022-11-20T08:36:38;96837.91;;;6.54;81.76
9281;BME280;4679;47.966;7.958;2022-11-20T08:38:40;96844.78;;;6.55;81.73
9281;BME280;4679;47.966;7.958;2022-11-20T08:40:41;96836.41;;;6.58;81.74
9281;BME280;4679;47.966;7.958;2022-11-20T08:43:03;96841.47;;;6.60;80.59
9281;BME280;4679;47.966;7.958;2022-11-20T08:45:06;96845.72;;;6.61;81.19
9281;BME280;4679;47.966;7.958;2022-11-20T08:47:09;96847.91;;;6.64;81.80
9281;BME280;4679;47.966;7.958;2022-11-20T08:49:12;96846.66;;;6.66;81.65
9281;BME280;4679;47.966;7.958;2022-11-20T08:51:16;96847.25;;;6.68;80.92
9281;BME280;4679;47.966;7.958;2022-11-20T08:53:18;96855.72;;;6.70;81.29
9281;BME280;4679;47.966;7.958;2022-11-20T08:55:19;96849.19;;;6.73;81.10
9281;BME280;4679;47.966;7.958;2022-11-20T08:57:21;96848.16;;;6.74;81.02
9281;BME280;4679;47.966;7.958;2022-11-20T08:59:24;96847.94;;;6.76;80.55
9281;BME280;4679;47.966;7.958;2022-11-20T09:01:26;96850.34;;;6.77;80.53
9281;BME280;4679;47.966;7.958;2022-11-20T09:03:28;96853.56;;;6.79;81.07
9281;BME280;4679;47.966;7.958;2022-11-20T09:05:30;96854.94;;;6.82;81.23
9281;BME280;4679;47.966;7.958;2022-11-20T09:07:33;96852.09;;;6.83;80.52
9281;BME280;4679;47.966;7.958;2022-11-20T09:09:34;96864.81;;;6.86;80.93
9281;BME280;4679;47.966;7.958;2022-11-20T09:11:36;96855.09;;;6.87;80.53
9281;BME280;4679;47.966;7.958;2022-11-20T09:13:38;96861.94;;;6.88;80.42
9281;BME280;4679;47.966;7.958;2022-11-20T09:15:39;96862.75;;;6.88;79.98
9281;BME280;4679;47.966;7.958;2022-11-20T09:17:41;96862.75;;;6.88;79.89
9281;BME280;4679;47.966;7.958;2022-11-20T09:19:43;96867.00;;;6.89;81.11
9281;BME280;4679;47.966;7.958;2022-11-20T09:21:44;96866.75;;;6.91;80.52
9281;BME280;4679;47.966;7.958;2022-11-20T09:23:47;96872.84;;;6.91;80.31
9281;BME280;4679;47.966;7.958;2022-11-20T09:25:49;96869.97;;;6.93;80.03
9281;BME280;4679;47.966;7.958;2022-11-20T09:27:54;96872.84;;;6.91;80.12
9281;BME280;4679;47.966;7.958;2022-11-20T09:29:56;96877.91;;;6.93;81.05
9281;BME280;4679;47.966;7.958;2022-11-20T09:31:58;96882.59;;;6.91;80.16
9281;BME280;4679;47.966;7.958;2022-11-20T09:34:00;96887.06;;;6.90;80.65
9281;BME280;4679;47.966;7.958;2022-11-20T09:36:01;96882.25;;;6.87;80.40
9281;BME280;4679;47.966;7.958;2022-11-20T09:38:06;96885.91;;;6.86;80.30
9281;BME280;4679;47.966;7.958;2022-11-20T09:40:19;96880.66;;;6.86;80.38
9281;BME280;4679;47.966;7.958;2022-11-20T09:42:30;96879.63;;;6.87;80.30
9281;BME280;4679;47.966;7.958;2022-11-20T09:44:50;96885.66;;;6.88;80.76
9281;BME280;4679;47.966;7.958;2022-11-20T09:47:00;96879.38;;;6.89;80.26
9281;BME280;4679;47.966;7.958;2022-11-20T09:49:22;96881.34;;;6.93;79.96
9281;BME280;4679;47.966;7.958;2022-11-20T09:51:35;96883.75;;;6.95;80.49
9281;BME280;4679;47.966;7.958;2022-11-20T09:53:46;96886.97;;;6.97;79.84
9281;BME280;4679;47.966;7.958;2022-11-20T09:55:54;96886.97;;;6.97;80.73
9281;BME280;4679;47.966;7.958;2022-11-20T09:57:58;96881.47;;;6.98;80.09
9281;BME280;4679;47.966;7.958;2022-11-20T10:00:02;96885.72;;;6.99;80.70
9281;BME280;4679;47.966;7.958;2022-11-20T10:02:16;96880.22;;;7.01;80.31
9281;BME280;4679;47.966;7.958;2022-11-20T10:04:20;96892.13;;;7.03;79.98
9281;BME280;4679;47.966;7.958;2022-11-20T10:06:30;96890.88;;;7.06;79.96
9281;BME280;4679;47.966;7.958;2022-11-20T10:08:35;96894.91;;;7.09;79.99
9281;BME280;4679;47.966;7.958;2022-11-20T10:10:43;96885.97;;;7.10;80.03
9281;BME280;4679;47.966;7.958;2022-11-20T10:12:59;96888.38;;;7.11;79.86
9281;BME280;4679;47.966;7.958;2022-11-20T10:15:17;96890.34;;;7.16;79.50
9281;BME280;4679;47.966;7.958;2022-11-20T10:17:40;96888.03;;;7.19;79.30
9281;BME280;4679;47.966;7.958;2022-11-20T10:19:56;96891.25;;;7.21;79.12
9281;BME280;4679;47.966;7.958;2022-11-20T10:22:10;96884.94;;;7.22;79.79
9281;BME280;4679;47.966;7.958;2022-11-20T10:24:32;96885.16;;;7.21;79.74
9281;BME280;4679;47.966;7.958;2022-11-20T10:26:43;96880.47;;;7.23;79.00
9281;BME280;4679;47.966;7.958;2022-11-20T10:29:03;96872.31;;;7.24;79.64
9281;BME280;4679;47.966;7.958;2022-11-20T10:31:11;96875.53;;;7.26;79.35
9281;BME280;4679;47.966;7.958;2022-11-20T10:33:17;96875.53;;;7.26;79.40
9281;BME280;4679;47.966;7.958;2022-11-20T10:35:23;96867.06;;;7.24;79.37
9281;BME280;4679;47.966;7.958;2022-11-20T10:37:29;96871.16;;;7.20;79.00
9281;BME280;4679;47.966;7.958;2022-11-20T10:39:36;96874.84;;;7.19;78.96
9281;BME280;4679;47.966;7.958;2022-11-20T10:41:41;96869.00;;;7.17;79.77
9281;BME280;4679;47.966;7.958;2022-11-20T10:43:44;96876.13;;;7.17;79.20
9281;BME280;4679;47.966;7.958;2022-11-20T10:45:53;96877.16;;;7.16;79.02
9281;BME280;4679;47.966;7.958;2022-11-20T10:48:08;96874.50;;;7.16;79.37
9281;BME280;4679;47.966;7.958;2022-11-20T10:50:14;96866.38;;;7.17;79.49
9281;BME280;4679;47.966;7.958;2022-11-20T10:52:23;96866.13;;;7.19;79.39
9281;BME280;4679;47.966;7.958;2022-11-20T10:54:34;96866.13;;;7.19;79.01
9281;BME280;4679;47.966;7.958;2022-11-20T10:56:41;96869.56;;;7.19;78.85
9281;BME280;4679;47.966;7.958;2022-11-20T10:58:52;96856.38;;;7.19;79.02
9281;BME280;4679;47.966;7.958;2022-11-20T11:01:04;96861.91;;;7.18;78.79
9281;BME280;4679;47.966;7.958;2022-11-20T11:03:20;96850.53;;;7.17;78.97
9281;BME280;4679;47.966;7.958;2022-11-20T11:05:34;96850.28;;;7.19;79.05
9281;BME280;4679;47.966;7.958;2022-11-20T11:07:39;96848.22;;;7.21;78.79
9281;BME280;4679;47.966;7.958;2022-11-20T11:09:43;96852.69;;;7.20;79.29
9281;BME280;4679;47.966;7.958;2022-11-20T11:11:45;96848.44;;;7.19;78.98
9281;BME280;4679;47.966;7.958;2022-11-20T11:13:47;96849.25;;;7.20;78.49
9281;BME280;4679;47.966;7.958;2022-11-20T11:15:49;96845.25;;;7.17;78.15
9281;BME280;4679;47.966;7.958;2022-11-20T11:17:53;96831.00;;;7.18;78.39
9281;BME280;4679;47.966;7.958;2022-11-20T11:20:14;96837.66;;;7.21;78.54
9281;BME280;4679;47.966;7.958;2022-11-20T11:22:17;96839.41;;;7.27;78.34
9281;BME280;4679;47.966;7.958;2022-11-20T11:24:21;96826.88;;;7.34;77.78
9281;BME280;4679;47.966;7.958;2022-11-20T11:26:23;96821.25;;;7.54;78.14
9281;BME280;4679;47.966;7.958;2022-11-20T11:28:26;96822.25;;;7.88;77.48
9281;BME280;4679;47.966;7.958;2022-11-20T11:30:29;96817.22;;;8.15;76.60
9281;BME280;4679;47.966;7.958;2022-11-20T11:32:32;96811.81;;;8.50;75.94
9281;BME280;4679;47.966;7.958;2022-11-20T11:34:36;96799.66;;;8.65;75.21
9281;BME280;4679;47.966;7.958;2022-11-20T11:37:12;96794.16;;;9.00;74.86
9281;BME280;4679;47.966;7.958;2022-11-20T11:39:19;96792.84;;;9.20;74.21
9281;BME280;4679;47.966;7.958;2022-11-20T11:41:24;96797.63;;;9.39;73.32
9281;BME280;4679;47.966;7.958;2022-11-20T11:43:29;96789.41;;;9.58;73.15
9281;BME280;4679;47.966;7.958;2022-11-20T11:45:52;96785.59;;;9.70;73.04
9281;BME280;4679;47.966;7.958;2022-11-20T11:47:58;96789.16;;;9.59;73.29
9281;BME280;4679;47.966;7.958;2022-11-20T11:50:18;96783.88;;;9.59;72.63
9281;BME280;4679;47.966;7.958;2022-11-20T11:52:22;96779.66;;;9.41;73.27
9281;BME280;4679;47.966;7.958;2022-11-20T11:54:30;96768.06;;;9.26;73.78
9281;BME280;4679;47.966;7.958;2022-11-20T11:56:34;96775.31;;;9.13;74.09
9281;BME280;4679;47.966;7.958;2022-11-20T11:58:43;96775.28;;;9.30;73.69
9281;BME280;4679;47.966;7.958;2022-11-20T12:00:52;96773.28;;;9.59;72.37
9281;BME280;4679;47.966;7.958;2022-11-20T12:03:02;96765.03;;;9.77;72.05
9281;BME280;4679;47.966;7.958;2022-11-20T12:05:16;96757.94;;;9.83;71.58
9281;BME280;4679;47.966;7.958;2022-11-20T12:07:22;96764.75;;;10.01;70.94
9281;BME280;4679;47.966;7.958;2022-11-20T12:09:35;96759.53;;;10.06;70.76
9281;BME280;4679;47.966;7.958;2022-11-20T12:11:44;96757.84;;;10.00;70.75
9281;BME280;4679;47.966;7.958;2022-11-20T12:13:52;96751.59;;;9.84;71.34
9281;BME280;4679;47.966;7.958;2022-11-20T12:15:55;96751.50;;;10.01;71.27
9281;BME280;4679;47.966;7.958;2022-11-20T12:17:57;96747.50;;;10.20;70.30
9281;BME280;4679;47.966;7.958;2022-11-20T12:19:59;96747.59;;;10.30;70.48
9281;BME280;4679;47.966;7.958;2022-11-20T12:22:06;96755.75;;;10.02;70.18
9281;BME280;4679;47.966;7.958;2022-11-20T12:26:54;96761.44;;;9.67;70.12
9281;BME280;4679;47.966;7.958;2022-11-20T12:29:05;96766.03;;;9.33;70.70
9281;BME280;4679;47.966;7.958;2022-11-20T12:31:18;96757.41;;;9.04;71.14
9281;BME280;4679;47.966;7.958;2022-11-20T12:33:54;96763.44;;;8.82;72.22
9281;BME280;4679;47.966;7.958;2022-11-20T12:36:07;96756.88;;;8.68;72.07
9281;BME280;4679;47.966;7.958;2022-11-20T12:40:54;96758.31;;;8.59;71.92
9281;BME280;4679;47.966;7.958;2022-11-20T12:43:07;96755.88;;;8.58;72.03
9281;BME280;4679;47.966;7.958;2022-11-20T12:45:52;96755.25;;;8.51;72.11
9281;BME280;4679;47.966;7.958;2022-11-20T12:50:42;96755.47;;;8.32;72.48
9281;BME280;4679;47.966;7.958;2022-11-20T12:52:48;96758.78;;;8.28;72.61
9281;BME280;4679;47.966;7.958;2022-11-20T12:57:26;96762.88;;;8.19;72.27
9281;BME280;4679;47.966;7.958;2022-11-20T12:59:49;96758.84;;;8.16;72.92
9281;BME280;4679;47.966;7.958;2022-11-20T13:01:56;96760.69;;;8.16;72.53
9281;BME280;4679;47.966;7.958;2022-11-20T13:04:00;96761.16;;;8.12;72.49
9281;BME280;4679;47.966;7.958;2022-11-20T13:06:13;96754.59;;;8.15;72.40
9281;BME280;4679;47.966;7.958;2022-11-20T13:08:20;96759.97;;;8.20;72.69
9281;BME280;4679;47.966;7.958;2022-11-20T13:10:31;96749.31;;;8.15;72.60
9281;BME280;4679;47.966;7.958;2022-11-20T13:12:41;96738.28;;;8.18;72.55
9281;BME280;4679;47.966;7.958;2022-11-20T13:14:50;96749.47;;;8.25;72.40
9281;BME280;4679;47.966;7.958;2022-11-20T13:16:59;96749.78;;;8.40;72.20
9281;BME280;4679;47.966;7.958;2022-11-20T13:19:03;96746.44;;;8.45;72.01
9281;BME280;4679;47.966;7.958;2022-11-20T13:21:14;96736.91;;;8.77;71.51
9281;BME280;4679;47.966;7.958;2022-11-20T13:23:26;96740.34;;;8.78;71.67
9281;BME280;4679;47.966;7.958;2022-11-20T13:25:30;96728.66;;;8.74;71.46
9281;BME280;4679;47.966;7.958;2022-11-20T13:27:32;96722.50;;;8.68;71.78
9281;BME280;4679;47.966;7.958;2022-11-20T13:29:37;96718.97;;;8.63;71.84
9281;BME280;4679;47.966;7.958;2022-11-20T13:31:43;96721.50;;;8.58;71.52
9281;BME280;4679;47.966;7.958;2022-11-20T13:33:51;96710.53;;;8.49;71.73
9281;BME280;4679;47.966;7.958;2022-11-20T13:35:57;96708.13;;;8.48;71.85
9281;BME280;4679;47.966;7.958;2022-11-20T13:38:01;96704.47;;;8.49;71.61
9281;BME280;4679;47.966;7.958;2022-11-20T13:40:20;96710.94;;;8.58;71.35
9281;BME280;4679;47.966;7.958;2022-11-20T13:42:26;96712.53;;;8.59;71.36
9281;BME280;4679;47.966;7.958;2022-11-20T13:44:33;96704.84;;;8.57;71.22
9281;BME280;4679;47.966;7.958;2022-11-20T13:46:41;96710.13;;;8.57;71.26
9281;BME280;4679;47.966;7.958;2022-11-20T13:48:45;96704.38;;;8.60;70.81
9281;BME280;4679;47.966;7.958;2022-11-20T13:50:55;96716.97;;;8.53;71.02
9281;BME280;4679;47.966;7.958;2022-11-20T13:53:05;96712.28;;;8.43;71.03
9281;BME280;4679;47.966;7.958;2022-11-20T13:55:18;96710.06;;;8.35;71.27
9281;BME280;4679;47.966;7.958;2022-11-20T13:57:40;96709.13;;;8.30;71.26
9281;BME280;4679;47.966;7.958;2022-11-20T13:59:53;96710.91;;;8.24;71.46
9281;BME280;4679;47.966;7.958;2022-11-20T14:01:59;96703.44;;;8.21;71.29
9281;BME280;4679;47.966;7.958;2022-11-20T14:04:06;96701.69;;;8.27;70.56
9281;BME280;4679;47.966;7.958;2022-11-20T14:06:12;96700.41;;;8.29;70.88
9281;BME280;4679;47.966;7.958;2022-11-20T14:08:24;96702.31;;;8.17;70.58
9281;BME280;4679;47.966;7.958;2022-11-20T14:10:28;96699.66;;;8.17;70.57
9281;BME280;4679;47.966;7.958;2022-11-20T14:12:32;96693.03;;;8.15;70.83
9281;BME280;4679;47.966;7.958;2022-11-20T14:14:34;96695.81;;;8.08;70.50
9281;BME280;4679;47.966;7.958;2022-11-20T14:16:37;96685.50;;;8.06;70.68
9281;BME280;4679;47.966;7.958;2022-11-20T14:18:40;96697.72;;;8.12;70.57
9281;BME280;4679;47.966;7.958;2022-11-20T14:20:42;96681.47;;;8.04;70.83
9281;BME280;4679;47.966;7.958;2022-11-20T14:22:48;96682.28;;;8.04;70.61
9281;BME280;4679;47.966;7.958;2022-11-20T14:25:04;96681.31;;;8.10;70.41
9281;BME280;4679;47.966;7.958;2022-11-20T14:27:12;96683.09;;;8.05;70.60
9281;BME280;4679;47.966;7.958;2022-11-20T14:29:15;96671.84;;;7.98;70.41
9281;BME280;4679;47.966;7.958;2022-11-20T14:31:23;96672.31;;;7.95;70.81
9281;BME280;4679;47.966;7.958;2022-11-20T14:33:26;96669.69;;;7.95;70.61
9281;BME280;4679;47.966;7.958;2022-11-20T14:35:33;96670.25;;;7.97;70.35
9281;BME280;4679;47.966;7.958;2022-11-20T14:37:37;96659.50;;;7.87;70.26
9281;BME280;4679;47.966;7.958;2022-11-20T14:39:42;96659.41;;;7.82;70.48
9281;BME280;4679;47.966;7.958;2022-11-20T14:41:50;96651.19;;;7.78;71.08
9281;BME280;4679;47.966;7.958;2022-11-20T14:43:54;96643.50;;;7.76;70.85
9281;BME280;4679;47.966;7.958;2022-11-20T14:45:58;96638.78;;;7.79;70.73
9281;BME280;4679;47.966;7.958;2022-11-20T14:48:00;96628.75;;;7.81;70.66
9281;BME280;4679;47.966;7.958;2022-11-20T14:50:03;96617.72;;;7.84;70.73
9281;BME280;4679;47.966;7.958;2022-11-20T14:52:13;96618.28;;;7.86;70.11
9281;BME280;4679;47.966;7.958;2022-11-20T14:54:17;96614.59;;;7.87;69.97
9281;BME280;4679;47.966;7.958;2022-11-20T14:56:22;96620.84;;;7.81;70.54
9281;BME280;4679;47.966;7.958;2022-11-20T14:58:28;96612.91;;;7.81;70.45
9281;BME280;4679;47.966;7.958;2022-11-20T15:00:33;96609.47;;;7.80;70.24
9281;BME280;4679;47.966;7.958;2022-11-20T15:02:39;96606.75;;;7.75;70.20
9281;BME280;4679;47.966;7.958;2022-11-20T15:04:46;96613.31;;;7.72;70.76
9281;BME280;4679;47.966;7.958;2022-11-20T15:06:50;96610.44;;;7.74;70.40
9281;BME280;4679;47.966;7.958;2022-11-20T15:08:53;96603.78;;;7.71;70.74
9281;BME280;4679;47.966;7.958;2022-11-20T15:10:56;96607.22;;;7.72;70.28
9281;BME280;4679;47.966;7.958;2022-11-20T15:13:01;96612.75;;;7.70;70.92
9281;BME280;4679;47.966;7.958;2022-11-20T15:15:05;96619.63;;;7.71;70.57
9281;BME280;4679;47.966;7.958;2022-11-20T15:17:08;96618.81;;;7.71;70.71
9281;BME280;4679;47.966;7.958;2022-11-20T15:19:17;96612.28;;;7.73;70.18
9281;BME280;4679;47.966;7.958;2022-11-20T15:21:20;96615.38;;;7.70;71.08
9281;BME280;4679;47.966;7.958;2022-11-20T15:23:22;96609.53;;;7.68;70.84
9281;BME280;4679;47.966;7.958;2022-11-20T15:25:25;96605.53;;;7.66;70.45
9281;BME280;4679;47.966;7.958;2022-11-20T15:27:28;96610.25;;;7.64;71.17
9281;BME280;4679;47.966;7.958;2022-11-20T15:29:30;96599.94;;;7.62;70.65
9281;BME280;4679;47.966;7.958;2022-11-20T15:31:31;96602.72;;;7.56;71.35
9281;BME280;4679;47.966;7.958;2022-11-20T15:33:33;96602.94;;;7.54;70.67
9281;BME280;4679;47.966;7.958;2022-11-20T15:35:35;96610.31;;;7.52;71.33
9281;BME280;4679;47.966;7.958;2022-11-20T15:37:37;96595.25;;;7.53;70.87
9281;BME280;4679;47.966;7.958;2022-11-20T15:39:39;96601.00;;;7.50;71.33
9281;BME280;4679;47.966;7.958;2022-11-20T15:41:42;96586.22;;;7.49;71.06
9281;BME280;4679;47.966;7.958;2022-11-20T15:43:44;96574.63;;;7.50;71.67
9281;BME280;4679;47.966;7.958;2022-11-20T15:45:47;96571.97;;;7.50;70.99
9281;BME280;4679;47.966;7.958;2022-11-20T15:47:49;96565.66;;;7.51;71.40
9281;BME280;4679;47.966;7.958;2022-11-20T15:49:51;96566.22;;;7.53;71.09
9281;BME280;4679;47.966;7.958;2022-11-20T15:51:53;96568.06;;;7.52;71.39
9281;BME280;4679;47.966;7.958;2022-11-20T15:53:55;96562.78;;;7.52;71.00
9281;BME280;4679;47.966;7.958;2022-11-20T15:55:57;96553.50;;;7.50;71.12
9281;BME280;4679;47.966;7.958;2022-11-20T15:58:00;96544.78;;;7.49;71.43
9281;BME280;4679;47.966;7.958;2022-11-20T16:00:02;96552.69;;;7.49;71.27
9281;BME280;4679;47.966;7.958;2022-11-20T16:02:08;96558.25;;;7.48;70.70
9281;BME280;4679;47.966;7.958;2022-11-20T16:04:11;96573.28;;;7.47;71.23
9281;BME280;4679;47.966;7.958;2022-11-20T16:06:13;96571.44;;;7.48;70.39
9281;BME280;4679;47.966;7.958;2022-11-20T16:08:16;96569.03;;;7.46;70.48
9281;BME280;4679;47.966;7.958;2022-11-20T16:10:18;96572.72;;;7.45;70.93
9281;BME280;4679;47.966;7.958;2022-11-20T16:12:19;96566.97;;;7.48;70.41
9281;BME280;4679;47.966;7.958;2022-11-20T16:14:36;96566.97;;;7.48;70.27
9281;BME280;4679;47.966;7.958;2022-11-20T16:16:55;96578.28;;;7.49;70.55
9281;BME280;4679;47.966;7.958;2022-11-20T16:18:57;96577.25;;;7.50;70.25
9281;BME280;4679;47.966;7.958;2022-11-20T16:21:00;96578.06;;;7.50;70.09
9281;BME280;4679;47.966;7.958;2022-11-20T16:23:02;96577.53;;;7.48;70.58
9281;BME280;4679;47.966;7.958;2022-11-20T16:25:04;96582.53;;;7.50;70.78
9281;BME280;4679;47.966;7.958;2022-11-20T16:27:06;96581.72;;;7.49;70.93
9281;BME280;4679;47.966;7.958;2022-11-20T16:29:08;96592.06;;;7.51;69.91
9281;BME280;4679;47.966;7.958;2022-11-20T16:31:13;96594.94;;;7.49;70.12
9281;BME280;4679;47.966;7.958;2022-11-20T16:33:16;96601.59;;;7.52;70.00
9281;BME280;4679;47.966;7.958;2022-11-20T16:35:18;96588.38;;;7.52;70.87
9281;BME280;4679;47.966;7.958;2022-11-20T16:37:20;96585.50;;;7.53;69.79
9281;BME280;4679;47.966;7.958;2022-11-20T16:39:21;96584.94;;;7.51;70.42
9281;BME280;4679;47.966;7.958;2022-11-20T16:41:24;96584.69;;;7.53;70.09
9281;BME280;4679;47.966;7.958;2022-11-20T16:43:26;96589.19;;;7.52;70.25
9281;BME280;4679;47.966;7.958;2022-11-20T16:45:28;96575.97;;;7.52;69.70
9281;BME280;4679;47.966;7.958;2022-11-20T16:47:34;96572.63;;;7.57;69.63
9281;BME280;4679;47.966;7.958;2022-11-20T16:49:36;96563.91;;;7.56;69.34
9281;BME280;4679;47.966;7.958;2022-11-20T16:51:37;96567.13;;;7.58;69.79
9281;BME280;4679;47.966;7.958;2022-11-20T16:53:39;96583.66;;;7.54;69.20
9281;BME280;4679;47.966;7.958;2022-11-20T16:55:42;96581.84;;;7.54;68.93
9281;BME280;4679;47.966;7.958;2022-11-20T16:57:43;96578.16;;;7.55;69.78
9281;BME280;4679;47.966;7.958;2022-11-20T16:59:45;96582.41;;;7.56;69.39
9281;BME280;4679;47.966;7.958;2022-11-20T17:01:47;96568.16;;;7.57;68.96
9281;BME280;4679;47.966;7.958;2022-11-20T17:03:55;96571.28;;;7.54;69.37
9281;BME280;4679;47.966;7.958;2022-11-20T17:05:57;96572.88;;;7.55;69.42
9281;BME280;4679;47.966;7.958;2022-11-20T17:07:59;96561.50;;;7.55;69.07
9281;BME280;4679;47.966;7.958;2022-11-20T17:10:00;96558.88;;;7.55;68.92
9281;BME280;4679;47.966;7.958;2022-11-20T17:12:03;96576.56;;;7.54;69.46
9281;BME280;4679;47.966;7.958;2022-11-20T17:14:06;96578.63;;;7.52;69.24
9281;BME280;4679;47.966;7.958;2022-11-20T17:16:09;96564.38;;;7.53;68.66
9281;BME280;4679;47.966;7.958;2022-11-20T17:18:11;96568.06;;;7.52;68.97
9281;BME280;4679;47.966;7.958;2022-11-20T17:20:15;96573.91;;;7.54;68.30
9281;BME280;4679;47.966;7.958;2022-11-20T17:22:17;96575.75;;;7.54;68.62
9281;BME280;4679;47.966;7.958;2022-11-20T17:24:19;96568.06;;;7.52;69.31
9281;BME280;4679;47.966;7.958;2022-11-20T17:26:22;96577.03;;;7.51;69.00
9281;BME280;4679;47.966;7.958;2022-11-20T17:28:24;96575.97;;;7.52;69.30
9281;BME280;4679;47.966;7.958;2022-11-20T17:30:26;96570.72;;;7.52;68.69
9281;BME280;4679;47.966;7.958;2022-11-20T17:32:28;96563.59;;;7.53;68.35
9281;BME280;4679;47.966;7.958;2022-11-20T17:34:30;96575.28;;;7.57;68.59
9281;BME280;4679;47.966;7.958;2022-11-20T17:36:33;96597.66;;;7.54;69.12
9281;BME280;4679;47.966;7.958;2022-11-20T17:38:35;96570.81;;;7.57;68.45
9281;BME280;4679;47.966;7.958;2022-11-20T17:40:37;96571.13;;;7.61;68.52
9281;BME280;4679;47.966;7.958;2022-11-20T17:42:39;96569.28;;;7.61;68.52
9281;BME280;4679;47.966;7.958;2022-11-20T17:44:40;96596.50;;;7.62;68.48
9281;BME280;4679;47.966;7.958;2022-11-20T17:46:43;96563.78;;;7.63;67.88
9281;BME280;4679;47.966;7.958;2022-11-20T17:48:46;96585.72;;;7.63;67.64
9281;BME280;4679;47.966;7.958;2022-11-20T17:50:48;96571.69;;;7.63;67.84
9281;BME280;4679;47.966;7.958;2022-11-20T17:52:51;96570.09;;;7.62;67.41
9281;BME280;4679;47.966;7.958;2022-11-20T17:54:53;96568.72;;;7.59;67.24
9281;BME280;4679;47.966;7.958;2022-11-20T17:56:57;96565.19;;;7.54;67.40
9281;BME280;4679;47.966;7.958;2022-11-20T17:59:16;96552.69;;;7.49;67.90
9281;BME280;4679;47.966;7.958;2022-11-20T18:01:19;96561.34;;;7.45;67.84
9281;BME280;4679;47.966;7.958;2022-11-20T18:03:23;96555.41;;;7.37;68.11
9281;BME280;4679;47.966;7.958;2022-11-20T18:05:25;96559.31;;;7.35;67.66
9281;BME280;4679;47.966;7.958;2022-11-20T18:07:27;96571.84;;;7.28;68.28
9281;BME280;4679;47.966;7.958;2022-11-20T18:09:30;96564.31;;;7.20;68.07
9281;BME280;4679;47.966;7.958;2022-11-20T18:11:34;96608.19;;;6.97;67.89
9281;BME280;4679;47.966;7.958;2022-11-20T18:13:36;96579.00;;;6.76;68.57
9281;BME280;4679;47.966;7.958;2022-11-20T18:16:05;96574.81;;;6.51;69.88
9281;BME280;4679;47.966;7.958;2022-11-20T18:18:07;96573.56;;;6.30;69.50
9281;BME280;4679;47.966;7.958;2022-11-20T18:20:09;96598.28;;;6.18;70.45
9281;BME280;4679;47.966;7.958;2022-11-20T18:22:13;96593.94;;;6.12;70.21